sensor_id;sensor_type;location;lat;lon;timestamp;temperature;humidity
6146;DHT22;3104;50.348;7.620;2023-12-07T00:01:05;3.30;99.90
6146;DHT22;3104;50.348;7.620;2023-12-07T00:03:30;3.40;99.90
6146;DHT22;3104;50.348;7.620;2023-12-07T00:05:56;3.50;99.90
6146;DHT22;3104;50.348;7.620;2023-12-07T00:08:21;3.50;99.90
6146;DHT22;3104;50.348;7.620;2023-12-07T00:10:47;3.40;99.90
6146;DHT22;3104;50.348;7.620;2023-12-07T00:13:13;3.40;99.90
6146;DHT22;3104;50.348;7.620;2023-12-07T00:15:38;3.20;99.90
6146;DHT22;3104;50.348;7.620;2023-12-07T00:18:05;3.20;99.90
6146;DHT22;3104;50.348;7.620;2023-12-07T00:20:31;3.40;99.90
6146;DHT22;3104;50.348;7.620;2023-12-07T00:22:56;3.40;99.90
6146;DHT22;3104;50.348;7.620;2023-12-07T00:25:22;3.30;99.90
6146;DHT22;3104;50.348;7.620;2023-12-07T00:27:51;3.40;99.90
6146;DHT22;3104;50.348;7.620;2023-12-07T00:30:17;3.40;99.90
6146;DHT22;3104;50.348;7.620;2023-12-07T00:32:43;3.50;99.90
6146;DHT22;3104;50.348;7.620;2023-12-07T00:35:12;3.60;99.90
6146;DHT22;3104;50.348;7.620;2023-12-07T00:37:38;3.60;99.90
6146;DHT22;3104;50.348;7.620;2023-12-07T00:40:04;3.60;99.90
6146;DHT22;3104;50.348;7.620;2023-12-07T00:42:30;3.50;99.90
6146;DHT22;3104;50.348;7.620;2023-12-07T00:44:56;3.50;99.90
6146;DHT22;3104;50.348;7.620;2023-12-07T00:47:22;3.40;99.90
6146;DHT22;3104;50.348;7.620;2023-12-07T00:49:48;3.30;99.90
6146;DHT22;3104;50.348;7.620;2023-12-07T00:52:13;3.20;99.90
6146;DHT22;3104;50.348;7.620;2023-12-07T00:54:39;3.20;99.90
6146;DHT22;3104;50.348;7.620;2023-12-07T00:57:05;3.10;99.90
6146;DHT22;3104;50.348;7.620;2023-12-07T00:59:31;3.60;99.90
6146;DHT22;3104;50.348;7.620;2023-12-07T01:02:03;3.40;99.90
6146;DHT22;3104;50.348;7.620;2023-12-07T01:04:29;3.10;99.90
6146;DHT22;3104;50.348;7.620;2023-12-07T01:06:55;3.10;99.90
6146;DHT22;3104;50.348;7.620;2023-12-07T01:09:20;3.00;99.90
6146;DHT22;3104;50.348;7.620;2023-12-07T01:11:47;2.90;99.90
6146;DHT22;3104;50.348;7.620;2023-12-07T01:14:13;2.90;99.90
6146;DHT22;3104;50.348;7.620;2023-12-07T01:16:38;3.00;99.90
6146;DHT22;3104;50.348;7.620;2023-12-07T01:19:04;3.00;99.90
6146;DHT22;3104;50.348;7.620;2023-12-07T01:21:29;3.10;99.90
6146;DHT22;3104;50.348;7.620;2023-12-07T01:23:55;3.00;99.90
6146;DHT22;3104;50.348;7.620;2023-12-07T01:26:20;3.00;99.90
6146;DHT22;3104;50.348;7.620;2023-12-07T01:28:46;2.90;99.90
6146;DHT22;3104;50.348;7.620;2023-12-07T01:31:12;2.90;99.90
6146;DHT22;3104;50.348;7.620;2023-12-07T01:33:37;2.70;99.90
6146;DHT22;3104;50.348;7.620;2023-12-07T01:36:03;2.80;99.90
6146;DHT22;3104;50.348;7.620;2023-12-07T01:38:28;2.70;99.90
6146;DHT22;3104;50.348;7.620;2023-12-07T01:40:54;2.70;99.90
6146;DHT22;3104;50.348;7.620;2023-12-07T01:43:22;2.70;99.90
6146;DHT22;3104;50.348;7.620;2023-12-07T01:45:48;2.60;99.90
6146;DHT22;3104;50.348;7.620;2023-12-07T01:48:15;2.60;99.90
6146;DHT22;3104;50.348;7.620;2023-12-07T01:50:41;2.60;99.90
6146;DHT22;3104;50.348;7.620;2023-12-07T01:53:07;2.50;99.90
6146;DHT22;3104;50.348;7.620;2023-12-07T01:55:33;2.60;99.90
6146;DHT22;3104;50.348;7.620;2023-12-07T01:57:59;2.50;99.90
6146;DHT22;3104;50.348;7.620;2023-12-07T02:00:26;2.30;99.90
6146;DHT22;3104;50.348;7.620;2023-12-07T02:02:52;2.40;99.90
6146;DHT22;3104;50.348;7.620;2023-12-07T02:05:18;2.40;99.90
6146;DHT22;3104;50.348;7.620;2023-12-07T02:07:44;2.40;99.90
6146;DHT22;3104;50.348;7.620;2023-12-07T02:10:10;2.70;99.90
6146;DHT22;3104;50.348;7.620;2023-12-07T02:12:36;2.80;99.90
6146;DHT22;3104;50.348;7.620;2023-12-07T02:15:02;3.00;99.90
6146;DHT22;3104;50.348;7.620;2023-12-07T02:17:49;2.90;99.90
6146;DHT22;3104;50.348;7.620;2023-12-07T02:20:29;3.20;99.90
6146;DHT22;3104;50.348;7.620;2023-12-07T02:23:03;3.20;99.90
6146;DHT22;3104;50.348;7.620;2023-12-07T02:25:37;2.90;99.90
6146;DHT22;3104;50.348;7.620;2023-12-07T02:28:05;2.60;99.90
6146;DHT22;3104;50.348;7.620;2023-12-07T02:30:30;2.20;99.90
6146;DHT22;3104;50.348;7.620;2023-12-07T02:32:56;2.20;99.90
6146;DHT22;3104;50.348;7.620;2023-12-07T02:35:22;2.20;99.90
6146;DHT22;3104;50.348;7.620;2023-12-07T02:37:49;2.20;99.90
6146;DHT22;3104;50.348;7.620;2023-12-07T02:40:18;2.00;99.90
6146;DHT22;3104;50.348;7.620;2023-12-07T02:42:44;2.00;99.90
6146;DHT22;3104;50.348;7.620;2023-12-07T02:45:10;2.00;99.90
6146;DHT22;3104;50.348;7.620;2023-12-07T02:47:37;2.20;99.90
6146;DHT22;3104;50.348;7.620;2023-12-07T02:50:05;2.20;99.90
6146;DHT22;3104;50.348;7.620;2023-12-07T02:52:31;2.40;99.90
6146;DHT22;3104;50.348;7.620;2023-12-07T02:54:57;2.10;99.90
6146;DHT22;3104;50.348;7.620;2023-12-07T02:57:22;2.00;99.90
6146;DHT22;3104;50.348;7.620;2023-12-07T02:59:48;2.20;99.90
6146;DHT22;3104;50.348;7.620;2023-12-07T03:02:14;2.30;99.90
6146;DHT22;3104;50.348;7.620;2023-12-07T03:04:39;2.20;99.90
6146;DHT22;3104;50.348;7.620;2023-12-07T03:07:05;2.20;99.90
6146;DHT22;3104;50.348;7.620;2023-12-07T03:09:30;2.10;99.90
6146;DHT22;3104;50.348;7.620;2023-12-07T03:11:56;2.10;99.90
6146;DHT22;3104;50.348;7.620;2023-12-07T03:14:21;2.10;99.90
6146;DHT22;3104;50.348;7.620;2023-12-07T03:16:47;2.20;99.90
6146;DHT22;3104;50.348;7.620;2023-12-07T03:19:12;2.10;99.90
6146;DHT22;3104;50.348;7.620;2023-12-07T03:21:42;2.10;99.90
6146;DHT22;3104;50.348;7.620;2023-12-07T03:24:08;1.90;99.90
6146;DHT22;3104;50.348;7.620;2023-12-07T03:26:34;1.80;99.90
6146;DHT22;3104;50.348;7.620;2023-12-07T03:29:00;1.60;99.90
6146;DHT22;3104;50.348;7.620;2023-12-07T03:31:25;1.90;99.90
6146;DHT22;3104;50.348;7.620;2023-12-07T03:33:51;1.80;99.90
6146;DHT22;3104;50.348;7.620;2023-12-07T03:36:16;1.70;99.90
6146;DHT22;3104;50.348;7.620;2023-12-07T03:38:42;1.70;99.90
6146;DHT22;3104;50.348;7.620;2023-12-07T03:41:08;1.60;99.90
6146;DHT22;3104;50.348;7.620;2023-12-07T03:43:34;1.60;99.90
6146;DHT22;3104;50.348;7.620;2023-12-07T03:46:03;1.70;99.90
6146;DHT22;3104;50.348;7.620;2023-12-07T03:48:28;1.50;99.90
6146;DHT22;3104;50.348;7.620;2023-12-07T03:50:54;1.60;99.90
6146;DHT22;3104;50.348;7.620;2023-12-07T03:53:20;1.70;99.90
6146;DHT22;3104;50.348;7.620;2023-12-07T03:55:45;1.70;99.90
6146;DHT22;3104;50.348;7.620;2023-12-07T03:58:11;1.80;99.90
6146;DHT22;3104;50.348;7.620;2023-12-07T04:00:38;2.00;99.90
6146;DHT22;3104;50.348;7.620;2023-12-07T04:03:04;2.00;99.90
6146;DHT22;3104;50.348;7.620;2023-12-07T04:05:30;1.90;99.90
6146;DHT22;3104;50.348;7.620;2023-12-07T04:07:55;1.90;99.90
6146;DHT22;3104;50.348;7.620;2023-12-07T04:10:21;1.80;99.90
6146;DHT22;3104;50.348;7.620;2023-12-07T04:12:46;1.80;99.90
6146;DHT22;3104;50.348;7.620;2023-12-07T04:15:12;1.70;99.90
6146;DHT22;3104;50.348;7.620;2023-12-07T04:17:37;1.70;99.90
6146;DHT22;3104;50.348;7.620;2023-12-07T04:20:03;1.70;99.90
6146;DHT22;3104;50.348;7.620;2023-12-07T04:22:30;1.80;99.90
6146;DHT22;3104;50.348;7.620;2023-12-07T04:24:55;2.20;99.90
6146;DHT22;3104;50.348;7.620;2023-12-07T04:27:21;2.30;99.90
6146;DHT22;3104;50.348;7.620;2023-12-07T04:29:46;2.20;99.90
6146;DHT22;3104;50.348;7.620;2023-12-07T04:32:12;2.40;99.90
6146;DHT22;3104;50.348;7.620;2023-12-07T04:34:38;2.20;99.90
6146;DHT22;3104;50.348;7.620;2023-12-07T04:37:03;2.10;99.90
6146;DHT22;3104;50.348;7.620;2023-12-07T04:39:30;1.80;99.90
6146;DHT22;3104;50.348;7.620;2023-12-07T04:41:55;1.50;99.90
6146;DHT22;3104;50.348;7.620;2023-12-07T04:44:21;1.50;99.90
6146;DHT22;3104;50.348;7.620;2023-12-07T04:46:46;1.40;99.90
6146;DHT22;3104;50.348;7.620;2023-12-07T04:49:12;1.40;99.90
6146;DHT22;3104;50.348;7.620;2023-12-07T04:51:38;1.60;99.90
6146;DHT22;3104;50.348;7.620;2023-12-07T04:54:03;1.60;99.90
6146;DHT22;3104;50.348;7.620;2023-12-07T04:56:29;1.60;99.90
6146;DHT22;3104;50.348;7.620;2023-12-07T04:58:54;1.50;99.90
6146;DHT22;3104;50.348;7.620;2023-12-07T05:01:20;1.50;99.90
6146;DHT22;3104;50.348;7.620;2023-12-07T05:03:45;1.60;99.90
6146;DHT22;3104;50.348;7.620;2023-12-07T05:06:11;1.70;99.90
6146;DHT22;3104;50.348;7.620;2023-12-07T05:08:39;1.40;99.90
6146;DHT22;3104;50.348;7.620;2023-12-07T05:11:05;1.40;99.90
6146;DHT22;3104;50.348;7.620;2023-12-07T05:13:32;1.30;99.90
6146;DHT22;3104;50.348;7.620;2023-12-07T05:15:59;1.30;99.90
6146;DHT22;3104;50.348;7.620;2023-12-07T05:18:25;1.30;99.90
6146;DHT22;3104;50.348;7.620;2023-12-07T05:20:50;1.20;99.90
6146;DHT22;3104;50.348;7.620;2023-12-07T05:23:16;1.20;99.90
6146;DHT22;3104;50.348;7.620;2023-12-07T05:25:42;1.20;99.90
6146;DHT22;3104;50.348;7.620;2023-12-07T05:28:08;1.20;99.90
6146;DHT22;3104;50.348;7.620;2023-12-07T05:30:35;1.10;99.90
6146;DHT22;3104;50.348;7.620;2023-12-07T05:33:01;1.20;99.90
6146;DHT22;3104;50.348;7.620;2023-12-07T05:35:27;1.40;99.90
6146;DHT22;3104;50.348;7.620;2023-12-07T05:37:52;1.40;99.90
6146;DHT22;3104;50.348;7.620;2023-12-07T05:40:18;1.50;99.90
6146;DHT22;3104;50.348;7.620;2023-12-07T05:42:44;1.50;99.90
6146;DHT22;3104;50.348;7.620;2023-12-07T05:45:10;1.50;99.90
6146;DHT22;3104;50.348;7.620;2023-12-07T05:47:35;1.60;99.90
6146;DHT22;3104;50.348;7.620;2023-12-07T05:50:01;1.50;99.90
6146;DHT22;3104;50.348;7.620;2023-12-07T05:52:29;1.50;99.90
6146;DHT22;3104;50.348;7.620;2023-12-07T05:54:54;1.40;99.90
6146;DHT22;3104;50.348;7.620;2023-12-07T05:57:20;1.40;99.90
6146;DHT22;3104;50.348;7.620;2023-12-07T05:59:45;1.50;99.90
6146;DHT22;3104;50.348;7.620;2023-12-07T06:02:11;1.70;99.90
6146;DHT22;3104;50.348;7.620;2023-12-07T06:04:37;1.80;99.90
6146;DHT22;3104;50.348;7.620;2023-12-07T06:07:03;1.90;99.90
6146;DHT22;3104;50.348;7.620;2023-12-07T06:09:28;2.40;99.90
6146;DHT22;3104;50.348;7.620;2023-12-07T06:11:55;2.60;99.90
6146;DHT22;3104;50.348;7.620;2023-12-07T06:14:20;2.50;99.90
6146;DHT22;3104;50.348;7.620;2023-12-07T06:16:48;2.30;99.90
6146;DHT22;3104;50.348;7.620;2023-12-07T06:19:14;2.10;99.90
6146;DHT22;3104;50.348;7.620;2023-12-07T06:21:39;2.00;99.90
6146;DHT22;3104;50.348;7.620;2023-12-07T06:24:05;2.30;99.90
6146;DHT22;3104;50.348;7.620;2023-12-07T06:26:30;2.80;99.90
6146;DHT22;3104;50.348;7.620;2023-12-07T06:28:56;2.70;99.90
6146;DHT22;3104;50.348;7.620;2023-12-07T06:31:21;2.70;99.90
6146;DHT22;3104;50.348;7.620;2023-12-07T06:33:48;2.60;99.90
6146;DHT22;3104;50.348;7.620;2023-12-07T06:36:23;2.80;99.90
6146;DHT22;3104;50.348;7.620;2023-12-07T06:38:49;3.00;99.90
6146;DHT22;3104;50.348;7.620;2023-12-07T06:41:15;3.30;99.90
6146;DHT22;3104;50.348;7.620;2023-12-07T06:43:44;3.00;99.90
6146;DHT22;3104;50.348;7.620;2023-12-07T06:46:13;3.20;99.90
6146;DHT22;3104;50.348;7.620;2023-12-07T06:48:41;2.80;99.90
6146;DHT22;3104;50.348;7.620;2023-12-07T06:51:06;3.30;99.90
6146;DHT22;3104;50.348;7.620;2023-12-07T06:53:32;3.50;99.90
6146;DHT22;3104;50.348;7.620;2023-12-07T06:55:58;3.60;99.90
6146;DHT22;3104;50.348;7.620;2023-12-07T06:58:24;3.30;99.90
6146;DHT22;3104;50.348;7.620;2023-12-07T07:00:49;3.50;99.90
6146;DHT22;3104;50.348;7.620;2023-12-07T07:03:15;3.60;99.90
6146;DHT22;3104;50.348;7.620;2023-12-07T07:05:41;3.70;99.90
6146;DHT22;3104;50.348;7.620;2023-12-07T07:08:06;3.60;99.90
6146;DHT22;3104;50.348;7.620;2023-12-07T07:10:35;3.50;99.90
6146;DHT22;3104;50.348;7.620;2023-12-07T07:13:02;3.60;99.90
6146;DHT22;3104;50.348;7.620;2023-12-07T07:15:32;3.50;99.90
6146;DHT22;3104;50.348;7.620;2023-12-07T07:17:58;3.00;99.90
6146;DHT22;3104;50.348;7.620;2023-12-07T07:20:25;2.90;99.90
6146;DHT22;3104;50.348;7.620;2023-12-07T07:22:51;3.10;99.90
6146;DHT22;3104;50.348;7.620;2023-12-07T07:25:16;3.10;99.90
6146;DHT22;3104;50.348;7.620;2023-12-07T07:27:45;3.00;99.90
6146;DHT22;3104;50.348;7.620;2023-12-07T07:30:11;2.50;99.90
6146;DHT22;3104;50.348;7.620;2023-12-07T07:32:37;2.40;99.90
6146;DHT22;3104;50.348;7.620;2023-12-07T07:35:02;2.60;99.90
6146;DHT22;3104;50.348;7.620;2023-12-07T07:37:28;2.40;99.90
6146;DHT22;3104;50.348;7.620;2023-12-07T07:39:54;2.50;99.90
6146;DHT22;3104;50.348;7.620;2023-12-07T07:42:19;2.40;99.90
6146;DHT22;3104;50.348;7.620;2023-12-07T07:44:45;2.30;99.90
6146;DHT22;3104;50.348;7.620;2023-12-07T07:47:10;2.40;99.90
6146;DHT22;3104;50.348;7.620;2023-12-07T07:49:36;2.30;99.90
6146;DHT22;3104;50.348;7.620;2023-12-07T07:52:02;2.50;99.90
6146;DHT22;3104;50.348;7.620;2023-12-07T07:54:28;3.20;99.90
6146;DHT22;3104;50.348;7.620;2023-12-07T07:56:54;2.90;99.90
6146;DHT22;3104;50.348;7.620;2023-12-07T07:59:19;3.30;99.90
6146;DHT22;3104;50.348;7.620;2023-12-07T08:01:45;2.60;99.90
6146;DHT22;3104;50.348;7.620;2023-12-07T08:04:12;2.90;99.90
6146;DHT22;3104;50.348;7.620;2023-12-07T08:06:38;3.20;99.90
6146;DHT22;3104;50.348;7.620;2023-12-07T08:09:12;2.90;99.90
6146;DHT22;3104;50.348;7.620;2023-12-07T08:11:38;2.40;99.90
6146;DHT22;3104;50.348;7.620;2023-12-07T08:14:03;2.70;99.90
6146;DHT22;3104;50.348;7.620;2023-12-07T08:16:29;2.30;99.90
6146;DHT22;3104;50.348;7.620;2023-12-07T08:18:54;2.00;99.90
6146;DHT22;3104;50.348;7.620;2023-12-07T08:21:24;2.20;99.90
6146;DHT22;3104;50.348;7.620;2023-12-07T08:23:50;2.30;99.90
6146;DHT22;3104;50.348;7.620;2023-12-07T08:26:16;2.40;99.90
6146;DHT22;3104;50.348;7.620;2023-12-07T08:28:42;3.00;99.90
6146;DHT22;3104;50.348;7.620;2023-12-07T08:31:08;3.10;99.90
6146;DHT22;3104;50.348;7.620;2023-12-07T08:33:34;3.40;99.90
6146;DHT22;3104;50.348;7.620;2023-12-07T08:36:00;2.90;99.90
6146;DHT22;3104;50.348;7.620;2023-12-07T08:38:26;3.00;99.90
6146;DHT22;3104;50.348;7.620;2023-12-07T08:40:52;3.10;99.90
6146;DHT22;3104;50.348;7.620;2023-12-07T08:43:21;3.30;99.90
6146;DHT22;3104;50.348;7.620;2023-12-07T08:45:51;3.50;99.90
6146;DHT22;3104;50.348;7.620;2023-12-07T08:48:17;3.60;99.90
6146;DHT22;3104;50.348;7.620;2023-12-07T08:50:43;3.60;99.90
6146;DHT22;3104;50.348;7.620;2023-12-07T08:53:09;3.30;99.90
6146;DHT22;3104;50.348;7.620;2023-12-07T08:55:34;2.90;99.90
6146;DHT22;3104;50.348;7.620;2023-12-07T08:58:00;2.80;99.90
6146;DHT22;3104;50.348;7.620;2023-12-07T09:00:26;2.90;99.90
6146;DHT22;3104;50.348;7.620;2023-12-07T09:02:52;2.90;99.90
6146;DHT22;3104;50.348;7.620;2023-12-07T09:05:18;2.80;99.90
6146;DHT22;3104;50.348;7.620;2023-12-07T09:07:44;2.80;99.90
6146;DHT22;3104;50.348;7.620;2023-12-07T09:10:10;3.00;99.90
6146;DHT22;3104;50.348;7.620;2023-12-07T09:12:35;3.30;99.90
6146;DHT22;3104;50.348;7.620;2023-12-07T09:15:02;3.60;99.90
6146;DHT22;3104;50.348;7.620;2023-12-07T09:17:28;3.70;99.90
6146;DHT22;3104;50.348;7.620;2023-12-07T09:19:54;3.30;99.90
6146;DHT22;3104;50.348;7.620;2023-12-07T09:22:19;3.80;99.90
6146;DHT22;3104;50.348;7.620;2023-12-07T09:24:45;3.70;99.90
6146;DHT22;3104;50.348;7.620;2023-12-07T09:27:13;4.00;99.90
6146;DHT22;3104;50.348;7.620;2023-12-07T09:29:38;4.20;99.90
6146;DHT22;3104;50.348;7.620;2023-12-07T09:32:05;4.10;99.90
6146;DHT22;3104;50.348;7.620;2023-12-07T09:34:31;4.00;99.90
6146;DHT22;3104;50.348;7.620;2023-12-07T09:37:09;4.10;99.90
6146;DHT22;3104;50.348;7.620;2023-12-07T09:39:35;4.10;99.90
6146;DHT22;3104;50.348;7.620;2023-12-07T09:42:01;4.20;99.90
6146;DHT22;3104;50.348;7.620;2023-12-07T09:44:28;4.00;99.90
6146;DHT22;3104;50.348;7.620;2023-12-07T09:46:53;3.80;99.90
6146;DHT22;3104;50.348;7.620;2023-12-07T09:49:20;3.50;99.90
6146;DHT22;3104;50.348;7.620;2023-12-07T09:51:46;3.60;99.90
6146;DHT22;3104;50.348;7.620;2023-12-07T09:54:12;3.80;99.90
6146;DHT22;3104;50.348;7.620;2023-12-07T09:56:38;3.90;99.90
6146;DHT22;3104;50.348;7.620;2023-12-07T09:59:04;3.70;99.90
6146;DHT22;3104;50.348;7.620;2023-12-07T10:01:31;3.60;99.90
6146;DHT22;3104;50.348;7.620;2023-12-07T10:04:22;3.50;99.90
6146;DHT22;3104;50.348;7.620;2023-12-07T10:06:49;3.60;99.90
6146;DHT22;3104;50.348;7.620;2023-12-07T10:09:16;4.20;99.90
6146;DHT22;3104;50.348;7.620;2023-12-07T10:11:44;4.30;99.90
6146;DHT22;3104;50.348;7.620;2023-12-07T10:14:10;4.00;99.90
6146;DHT22;3104;50.348;7.620;2023-12-07T10:16:36;3.80;99.90
6146;DHT22;3104;50.348;7.620;2023-12-07T10:19:16;3.70;99.90
6146;DHT22;3104;50.348;7.620;2023-12-07T10:21:51;3.50;99.90
6146;DHT22;3104;50.348;7.620;2023-12-07T10:24:17;3.60;99.90
6146;DHT22;3104;50.348;7.620;2023-12-07T10:26:44;4.00;99.90
6146;DHT22;3104;50.348;7.620;2023-12-07T10:29:10;4.10;99.90
6146;DHT22;3104;50.348;7.620;2023-12-07T10:31:36;4.40;99.90
6146;DHT22;3104;50.348;7.620;2023-12-07T10:34:02;4.10;99.90
6146;DHT22;3104;50.348;7.620;2023-12-07T10:36:28;3.90;99.90
6146;DHT22;3104;50.348;7.620;2023-12-07T10:38:54;4.00;99.90
6146;DHT22;3104;50.348;7.620;2023-12-07T10:41:21;4.20;99.90
6146;DHT22;3104;50.348;7.620;2023-12-07T10:43:51;4.30;99.90
6146;DHT22;3104;50.348;7.620;2023-12-07T10:46:20;4.30;99.90
6146;DHT22;3104;50.348;7.620;2023-12-07T10:48:46;4.30;99.90
6146;DHT22;3104;50.348;7.620;2023-12-07T10:51:37;4.30;99.90
6146;DHT22;3104;50.348;7.620;2023-12-07T10:54:04;4.20;99.90
6146;DHT22;3104;50.348;7.620;2023-12-07T10:56:44;4.20;99.90
6146;DHT22;3104;50.348;7.620;2023-12-07T10:59:10;4.20;99.90
6146;DHT22;3104;50.348;7.620;2023-12-07T11:01:40;4.40;99.90
6146;DHT22;3104;50.348;7.620;2023-12-07T11:04:06;4.10;99.90
6146;DHT22;3104;50.348;7.620;2023-12-07T11:06:33;4.40;99.90
6146;DHT22;3104;50.348;7.620;2023-12-07T11:09:02;4.70;99.90
6146;DHT22;3104;50.348;7.620;2023-12-07T11:11:36;4.70;99.90
6146;DHT22;3104;50.348;7.620;2023-12-07T11:14:07;4.90;99.90
6146;DHT22;3104;50.348;7.620;2023-12-07T11:16:36;4.50;99.90
6146;DHT22;3104;50.348;7.620;2023-12-07T11:19:02;4.10;99.90
6146;DHT22;3104;50.348;7.620;2023-12-07T11:21:28;4.10;99.90
6146;DHT22;3104;50.348;7.620;2023-12-07T11:23:54;4.10;99.90
6146;DHT22;3104;50.348;7.620;2023-12-07T11:26:23;4.20;99.90
6146;DHT22;3104;50.348;7.620;2023-12-07T11:28:49;4.70;99.90
6146;DHT22;3104;50.348;7.620;2023-12-07T11:31:16;4.90;99.90
6146;DHT22;3104;50.348;7.620;2023-12-07T11:33:42;5.50;99.90
6146;DHT22;3104;50.348;7.620;2023-12-07T11:36:09;6.00;99.90
6146;DHT22;3104;50.348;7.620;2023-12-07T11:41:23;5.90;99.90
6146;DHT22;3104;50.348;7.620;2023-12-07T11:43:50;6.30;99.90
6146;DHT22;3104;50.348;7.620;2023-12-07T11:46:19;5.90;99.90
6146;DHT22;3104;50.348;7.620;2023-12-07T11:48:47;5.80;99.90
6146;DHT22;3104;50.348;7.620;2023-12-07T11:51:13;5.90;99.90
6146;DHT22;3104;50.348;7.620;2023-12-07T11:53:39;6.00;99.90
6146;DHT22;3104;50.348;7.620;2023-12-07T11:56:06;6.10;99.90
6146;DHT22;3104;50.348;7.620;2023-12-07T11:58:33;5.80;99.90
6146;DHT22;3104;50.348;7.620;2023-12-07T12:00:59;6.20;99.90
6146;DHT22;3104;50.348;7.620;2023-12-07T12:03:26;6.50;99.90
6146;DHT22;3104;50.348;7.620;2023-12-07T12:05:52;6.50;99.90
6146;DHT22;3104;50.348;7.620;2023-12-07T12:08:19;6.50;99.90
6146;DHT22;3104;50.348;7.620;2023-12-07T12:10:45;6.60;99.90
6146;DHT22;3104;50.348;7.620;2023-12-07T12:13:11;6.50;99.90
6146;DHT22;3104;50.348;7.620;2023-12-07T12:15:41;6.60;99.90
6146;DHT22;3104;50.348;7.620;2023-12-07T12:18:07;6.80;99.90
6146;DHT22;3104;50.348;7.620;2023-12-07T12:20:32;6.40;99.90
6146;DHT22;3104;50.348;7.620;2023-12-07T12:22:59;6.30;99.90
6146;DHT22;3104;50.348;7.620;2023-12-07T12:25:26;6.20;99.90
6146;DHT22;3104;50.348;7.620;2023-12-07T12:27:55;6.50;99.90
6146;DHT22;3104;50.348;7.620;2023-12-07T12:30:21;6.40;99.90
6146;DHT22;3104;50.348;7.620;2023-12-07T12:32:48;7.00;99.90
6146;DHT22;3104;50.348;7.620;2023-12-07T12:35:14;6.80;99.90
6146;DHT22;3104;50.348;7.620;2023-12-07T12:37:46;6.60;99.90
6146;DHT22;3104;50.348;7.620;2023-12-07T12:40:13;7.00;99.90
6146;DHT22;3104;50.348;7.620;2023-12-07T12:42:46;7.00;99.90
6146;DHT22;3104;50.348;7.620;2023-12-07T12:45:13;6.60;99.90
6146;DHT22;3104;50.348;7.620;2023-12-07T12:47:40;6.60;99.90
6146;DHT22;3104;50.348;7.620;2023-12-07T12:50:06;6.60;99.90
6146;DHT22;3104;50.348;7.620;2023-12-07T12:52:35;6.70;99.90
6146;DHT22;3104;50.348;7.620;2023-12-07T12:55:02;7.10;99.90
6146;DHT22;3104;50.348;7.620;2023-12-07T12:57:28;7.10;99.90
6146;DHT22;3104;50.348;7.620;2023-12-07T12:59:54;6.90;99.90
6146;DHT22;3104;50.348;7.620;2023-12-07T13:02:22;6.40;99.90
6146;DHT22;3104;50.348;7.620;2023-12-07T13:04:48;6.10;99.90
6146;DHT22;3104;50.348;7.620;2023-12-07T13:07:14;5.90;99.90
6146;DHT22;3104;50.348;7.620;2023-12-07T13:09:40;5.80;99.90
6146;DHT22;3104;50.348;7.620;2023-12-07T13:12:06;5.90;99.90
6146;DHT22;3104;50.348;7.620;2023-12-07T13:14:35;5.80;99.90
6146;DHT22;3104;50.348;7.620;2023-12-07T13:17:06;6.20;99.90
6146;DHT22;3104;50.348;7.620;2023-12-07T13:19:33;5.40;99.90
6146;DHT22;3104;50.348;7.620;2023-12-07T13:21:59;5.60;99.90
6146;DHT22;3104;50.348;7.620;2023-12-07T13:24:24;5.50;99.90
6146;DHT22;3104;50.348;7.620;2023-12-07T13:26:50;5.60;99.90
6146;DHT22;3104;50.348;7.620;2023-12-07T13:29:17;5.80;99.90
6146;DHT22;3104;50.348;7.620;2023-12-07T13:31:42;5.80;99.90
6146;DHT22;3104;50.348;7.620;2023-12-07T13:34:08;6.10;99.90
6146;DHT22;3104;50.348;7.620;2023-12-07T13:36:33;6.10;99.90
6146;DHT22;3104;50.348;7.620;2023-12-07T13:39:00;5.90;99.90
6146;DHT22;3104;50.348;7.620;2023-12-07T13:41:28;6.00;99.90
6146;DHT22;3104;50.348;7.620;2023-12-07T13:43:54;5.90;99.90
6146;DHT22;3104;50.348;7.620;2023-12-07T13:46:20;6.40;99.90
6146;DHT22;3104;50.348;7.620;2023-12-07T13:48:45;6.30;99.90
6146;DHT22;3104;50.348;7.620;2023-12-07T13:51:12;6.00;99.90
6146;DHT22;3104;50.348;7.620;2023-12-07T13:53:38;6.00;99.90
6146;DHT22;3104;50.348;7.620;2023-12-07T13:56:04;5.90;99.90
6146;DHT22;3104;50.348;7.620;2023-12-07T13:58:30;5.80;99.90
6146;DHT22;3104;50.348;7.620;2023-12-07T14:00:56;5.60;99.90
6146;DHT22;3104;50.348;7.620;2023-12-07T14:03:22;5.40;99.90
6146;DHT22;3104;50.348;7.620;2023-12-07T14:05:48;5.30;99.90
6146;DHT22;3104;50.348;7.620;2023-12-07T14:08:14;5.10;99.90
6146;DHT22;3104;50.348;7.620;2023-12-07T14:10:39;5.40;99.90
6146;DHT22;3104;50.348;7.620;2023-12-07T14:13:05;5.20;99.90
6146;DHT22;3104;50.348;7.620;2023-12-07T14:15:30;5.10;99.90
6146;DHT22;3104;50.348;7.620;2023-12-07T14:18:00;5.20;99.90
6146;DHT22;3104;50.348;7.620;2023-12-07T14:20:25;5.10;99.90
6146;DHT22;3104;50.348;7.620;2023-12-07T14:22:56;4.90;99.90
6146;DHT22;3104;50.348;7.620;2023-12-07T14:25:21;4.60;99.90
6146;DHT22;3104;50.348;7.620;2023-12-07T14:27:47;4.60;99.90
6146;DHT22;3104;50.348;7.620;2023-12-07T14:30:14;3.90;99.90
6146;DHT22;3104;50.348;7.620;2023-12-07T14:32:42;3.90;99.90
6146;DHT22;3104;50.348;7.620;2023-12-07T14:35:13;3.70;99.90
6146;DHT22;3104;50.348;7.620;2023-12-07T14:37:39;3.60;99.90
6146;DHT22;3104;50.348;7.620;2023-12-07T14:40:06;3.70;99.90
6146;DHT22;3104;50.348;7.620;2023-12-07T14:42:32;3.80;99.90
6146;DHT22;3104;50.348;7.620;2023-12-07T14:44:58;3.80;99.90
6146;DHT22;3104;50.348;7.620;2023-12-07T14:47:23;3.90;99.90
6146;DHT22;3104;50.348;7.620;2023-12-07T14:49:49;3.50;99.90
6146;DHT22;3104;50.348;7.620;2023-12-07T14:52:15;3.60;99.90
6146;DHT22;3104;50.348;7.620;2023-12-07T14:54:40;3.70;99.90
6146;DHT22;3104;50.348;7.620;2023-12-07T14:57:06;3.60;99.90
6146;DHT22;3104;50.348;7.620;2023-12-07T14:59:33;3.60;99.90
6146;DHT22;3104;50.348;7.620;2023-12-07T15:01:59;3.80;99.90
6146;DHT22;3104;50.348;7.620;2023-12-07T15:04:26;3.60;99.90
6146;DHT22;3104;50.348;7.620;2023-12-07T15:06:51;3.70;99.90
6146;DHT22;3104;50.348;7.620;2023-12-07T15:09:19;3.40;99.90
6146;DHT22;3104;50.348;7.620;2023-12-07T15:11:45;3.70;99.90
6146;DHT22;3104;50.348;7.620;2023-12-07T15:14:11;3.80;99.90
6146;DHT22;3104;50.348;7.620;2023-12-07T15:16:37;3.50;99.90
6146;DHT22;3104;50.348;7.620;2023-12-07T15:19:02;3.10;99.90
6146;DHT22;3104;50.348;7.620;2023-12-07T15:21:29;3.50;99.90
6146;DHT22;3104;50.348;7.620;2023-12-07T15:23:54;3.40;99.90
6146;DHT22;3104;50.348;7.620;2023-12-07T15:26:20;3.40;99.90
6146;DHT22;3104;50.348;7.620;2023-12-07T15:28:45;3.00;99.90
6146;DHT22;3104;50.348;7.620;2023-12-07T15:31:11;2.90;99.90
6146;DHT22;3104;50.348;7.620;2023-12-07T15:33:37;3.10;99.90
6146;DHT22;3104;50.348;7.620;2023-12-07T15:36:04;3.10;99.90
6146;DHT22;3104;50.348;7.620;2023-12-07T15:38:30;3.20;99.90
6146;DHT22;3104;50.348;7.620;2023-12-07T15:40:56;3.10;99.90
6146;DHT22;3104;50.348;7.620;2023-12-07T15:43:25;3.20;99.90
6146;DHT22;3104;50.348;7.620;2023-12-07T15:45:51;3.10;99.90
6146;DHT22;3104;50.348;7.620;2023-12-07T15:48:17;3.30;99.90
6146;DHT22;3104;50.348;7.620;2023-12-07T15:50:47;3.20;99.90
6146;DHT22;3104;50.348;7.620;2023-12-07T15:53:13;3.10;99.90
6146;DHT22;3104;50.348;7.620;2023-12-07T15:55:39;3.10;99.90
6146;DHT22;3104;50.348;7.620;2023-12-07T15:58:05;3.10;99.90
6146;DHT22;3104;50.348;7.620;2023-12-07T16:00:31;3.00;99.90
6146;DHT22;3104;50.348;7.620;2023-12-07T16:02:57;3.20;99.90
6146;DHT22;3104;50.348;7.620;2023-12-07T16:05:22;2.90;99.90
6146;DHT22;3104;50.348;7.620;2023-12-07T16:07:48;3.00;99.90
6146;DHT22;3104;50.348;7.620;2023-12-07T16:10:13;2.80;99.90
6146;DHT22;3104;50.348;7.620;2023-12-07T16:12:39;2.60;99.90
6146;DHT22;3104;50.348;7.620;2023-12-07T16:15:05;2.50;99.90